Map Display - LFMN to EGSS
(last flight recorded 15-02-2019, 19:31 - Adrian Smith)

Aircraft Weights    Units : Maximums
Passengers :   100  
Cargo : kg 3,834 kg
Suggested Fuel Load : kg 8,326 kg
 
     
 
Dry Operating : 24,800 kg    
Total Payload : 0 kg 11,715 kg
 
Take Off : 30,846 kg 44,225 kg
 
Expected Landing : 27,172 kg 38,329 kg

Stuart Sutton-Young,  B463 ,  G-BRAB,  .

Route Distance Previous
Flights
Average
Duration
Average
Fuel Flow
Average
Fuel Use
LFMN - Nice/Cote d`Azur, France
EGSS - Stansted, London
569 nm 2 01:54 1,977 kg/h 3,674 kg

Current weather :-
2019/02/16 09:26
TAF LFMN 160800Z 1609/1715 34010KT CAVOK
BECMG 1609/1611 16010KT
BECMG 1617/1620 34010KT PROB40
TEMPO 1700/1709 BKN010 PROB30
TEMPO 1700/1707 4000 BR
BECMG 1709/1711 16010KT
2019/02/16 09:30
TAF
AMD EGSS 160920Z 1609/1712 21006KT 4000 BR BKN005
TEMPO 1609/1612 9999 NSW SCT005 PROB30
TEMPO 1609/1612 BKN004
BECMG 1612/1615 BKN003
TEMPO 1615/1703 0300 FG BKN001
BECMG 1702/1705 15010KT 9999 NSW FEW003

Back to Virtual Airline